createdAt,value
2023-01-15T00:00:11.011Z,4.72
2023-01-15T00:02:40.210Z,3.98
2023-01-15T00:05:09.802Z,4.81
2023-01-15T00:07:40.467Z,4.76
2023-01-15T00:10:11.040Z,4.79
2023-01-15T00:12:40.358Z,4.84
2023-01-15T00:15:10.144Z,4.49
2023-01-15T00:17:40.741Z,4.51
2023-01-15T00:20:12.018Z,4.70
2023-01-15T00:22:42.430Z,4.73
2023-01-15T00:25:29.488Z,4.46
2023-01-15T00:28:01.603Z,4.65
2023-01-15T00:30:32.341Z,4.70
2023-01-15T00:33:02.444Z,4.27
2023-01-15T00:35:36.167Z,3.87
2023-01-15T00:38:06.263Z,4.61
2023-01-15T00:40:35.369Z,4.04
2023-01-15T00:43:03.711Z,3.97
2023-01-15T00:45:32.143Z,4.17
2023-01-15T00:48:00.617Z,4.53
2023-01-15T00:50:29.228Z,4.60
2023-01-15T00:52:57.616Z,4.66
2023-01-15T00:55:28.371Z,4.19
2023-01-15T00:57:57.745Z,4.77
2023-01-15T01:00:26.564Z,4.21
2023-01-15T01:02:55.324Z,4.83
2023-01-15T01:05:23.724Z,4.13
2023-01-15T01:07:54.599Z,4.79
2023-01-15T01:10:23.590Z,4.48
2023-01-15T01:12:54.043Z,4.63
2023-01-15T01:15:23.627Z,4.68
2023-01-15T01:17:52.088Z,4.76
2023-01-15T01:20:22.180Z,4.65
2023-01-15T01:22:52.221Z,4.67
2023-01-15T01:25:22.475Z,4.67
2023-01-15T01:27:53.137Z,4.43
2023-01-15T01:30:22.617Z,4.71
2023-01-15T01:32:51.388Z,4.52
2023-01-15T01:35:20.275Z,4.60
2023-01-15T01:37:52.213Z,4.42
2023-01-15T01:40:21.237Z,4.65
2023-01-15T01:42:50.094Z,4.51
2023-01-15T01:45:26.929Z,4.49
2023-01-15T01:48:00.138Z,4.44
2023-01-15T01:50:31.340Z,4.49
2023-01-15T01:53:06.225Z,4.51
2023-01-15T01:55:37.227Z,4.52
2023-01-15T01:58:09.845Z,4.41
2023-01-15T02:00:44.140Z,4.23
2023-01-15T02:03:15.052Z,4.63
2023-01-15T02:05:51.638Z,4.27
2023-01-15T02:08:20.351Z,4.42
2023-01-15T02:10:54.319Z,3.42
2023-01-15T02:13:40.411Z,4.18
2023-01-15T02:16:18.511Z,4.39
2023-01-15T02:18:59.806Z,3.58
2023-01-15T02:21:49.653Z,4.48
2023-01-15T02:24:32.768Z,4.37
2023-01-15T02:27:13.419Z,4.15
2023-01-15T02:29:56.122Z,4.26
2023-01-15T02:32:35.070Z,4.44
2023-01-15T02:35:11.544Z,2.81
2023-01-15T02:37:46.630Z,4.40
2023-01-15T02:40:20.709Z,4.20
2023-01-15T02:42:51.568Z,4.07
2023-01-15T02:45:29.716Z,3.55
2023-01-15T02:48:07.283Z,3.86
2023-01-15T02:50:43.134Z,4.33
2023-01-15T02:53:18.433Z,4.30
2023-01-15T02:55:53.188Z,4.00
2023-01-15T02:58:34.697Z,4.16
2023-01-15T03:01:12.564Z,3.96
2023-01-15T03:03:48.684Z,4.02
2023-01-15T03:06:27.360Z,4.16
2023-01-15T03:08:56.815Z,4.23
2023-01-15T03:11:25.717Z,4.18
2023-01-15T03:14:08.055Z,4.43
2023-01-15T03:16:41.468Z,4.13
2023-01-15T03:19:22.572Z,4.26
2023-01-15T03:21:59.454Z,4.24
2023-01-15T03:24:39.183Z,3.93
2023-01-15T03:27:10.185Z,3.76
2023-01-15T03:29:47.225Z,4.31
2023-01-15T03:32:17.685Z,4.31
2023-01-15T03:34:52.254Z,4.37
2023-01-15T03:37:24.660Z,4.00
2023-01-15T03:39:56.831Z,4.15
2023-01-15T03:42:46.812Z,3.91
2023-01-15T03:45:37.460Z,3.96
2023-01-15T03:48:20.760Z,4.16
2023-01-15T03:50:55.390Z,4.00
2023-01-15T03:53:31.547Z,4.10
2023-01-15T03:56:09.823Z,3.98
2023-01-15T03:58:49.392Z,3.88
2023-01-15T04:01:32.052Z,3.99
2023-01-15T04:04:03.677Z,3.98
2023-01-15T04:06:35.843Z,4.01
2023-01-15T04:09:07.342Z,4.11
2023-01-15T04:11:36.056Z,4.08
2023-01-15T04:14:07.692Z,3.79
2023-01-15T04:16:50.425Z,3.88
2023-01-15T04:19:19.232Z,3.81
2023-01-15T04:21:55.010Z,3.86
2023-01-15T04:24:23.554Z,3.72
2023-01-15T04:26:52.020Z,3.83
2023-01-15T04:29:20.787Z,3.77
2023-01-15T04:31:52.735Z,3.58
2023-01-15T04:34:21.421Z,3.65
2023-01-15T04:36:49.874Z,3.76
2023-01-15T04:39:18.370Z,3.53
2023-01-15T04:42:04.872Z,3.65
2023-01-15T04:44:34.866Z,3.48
2023-01-15T04:47:04.991Z,3.44
2023-01-15T04:49:33.514Z,3.42
2023-01-15T04:52:01.907Z,3.41
2023-01-15T04:54:30.484Z,3.62
2023-01-15T04:56:59.531Z,3.67
2023-01-15T04:59:28.928Z,3.54
2023-01-15T05:02:05.000Z,3.39
2023-01-15T05:04:36.728Z,3.61
2023-01-15T05:07:06.608Z,3.45
2023-01-15T05:09:35.587Z,3.50
2023-01-15T05:12:04.027Z,3.41
2023-01-15T05:14:32.488Z,3.49
2023-01-15T05:17:00.815Z,3.51
2023-01-15T05:19:29.186Z,3.52
2023-01-15T05:21:58.957Z,3.60
2023-01-15T05:24:27.321Z,3.59
2023-01-15T05:26:58.314Z,3.43
2023-01-15T05:29:26.671Z,3.52
2023-01-15T05:31:55.101Z,3.65
2023-01-15T05:34:23.467Z,3.37
2023-01-15T05:36:51.839Z,3.57
2023-01-15T05:39:21.530Z,3.58
2023-01-15T05:41:49.993Z,3.56
2023-01-15T05:44:22.597Z,3.37
2023-01-15T05:46:52.606Z,3.18
2023-01-15T05:49:23.868Z,3.09
2023-01-15T05:51:54.125Z,3.34
2023-01-15T05:54:27.404Z,3.14
2023-01-15T05:56:56.564Z,3.33
2023-01-15T05:59:29.137Z,3.33
2023-01-15T06:01:58.336Z,3.26
2023-01-15T06:04:27.109Z,2.99
2023-01-15T06:06:57.648Z,3.06
2023-01-15T06:09:28.186Z,2.89
2023-01-15T06:11:57.655Z,3.00
2023-01-15T06:14:26.395Z,3.09
2023-01-15T06:16:54.809Z,3.05
2023-01-15T06:19:23.333Z,3.04
2023-01-15T06:21:51.737Z,2.84
2023-01-15T06:24:21.044Z,3.02
2023-01-15T06:26:50.946Z,2.77
2023-01-15T06:29:20.669Z,2.87
2023-01-15T06:31:50.044Z,2.92
2023-01-15T06:34:19.074Z,2.97
2023-01-15T06:36:50.152Z,3.01
2023-01-15T06:39:19.870Z,3.10
2023-01-15T06:42:05.718Z,3.03
2023-01-15T06:44:53.593Z,2.59
2023-01-15T06:47:24.378Z,2.98
2023-01-15T06:49:55.921Z,2.26
2023-01-15T06:52:25.748Z,3.07
2023-01-15T06:54:55.864Z,3.22
2023-01-15T06:57:26.611Z,2.67
2023-01-15T06:59:56.506Z,3.12
2023-01-15T07:02:25.470Z,2.96
2023-01-15T07:04:54.179Z,3.17
2023-01-15T07:07:23.052Z,3.22
2023-01-15T07:09:52.166Z,2.97
2023-01-15T07:12:21.260Z,2.70
2023-01-15T07:14:50.763Z,2.83
2023-01-15T07:17:20.731Z,2.78
2023-01-15T07:19:49.306Z,2.69
2023-01-15T07:22:17.721Z,2.89
2023-01-15T07:24:46.238Z,2.80
2023-01-15T07:27:17.653Z,2.71
2023-01-15T07:29:46.481Z,2.67
2023-01-15T07:32:17.695Z,2.33
2023-01-15T07:34:47.921Z,2.42
2023-01-15T07:37:16.335Z,2.29
2023-01-15T07:39:44.868Z,2.49
2023-01-15T07:42:42.519Z,2.55
2023-01-15T07:45:29.967Z,2.19
2023-01-15T07:48:15.937Z,2.04
2023-01-15T07:50:45.815Z,2.35
2023-01-15T07:53:14.174Z,2.19
2023-01-15T07:55:44.556Z,2.25
2023-01-15T07:58:14.672Z,2.31
2023-01-15T08:00:51.018Z,2.11
2023-01-15T08:03:22.115Z,2.05
2023-01-15T08:05:56.784Z,2.36
2023-01-15T08:08:25.610Z,2.32
2023-01-15T08:11:09.461Z,2.25
2023-01-15T08:13:56.662Z,1.88
2023-01-15T08:16:25.116Z,2.33
2023-01-15T08:18:54.178Z,2.43
2023-01-15T08:21:24.726Z,2.48
2023-01-15T08:23:53.587Z,2.49
2023-01-15T08:26:23.021Z,2.44
2023-01-15T08:28:51.593Z,2.41
2023-01-15T08:31:20.173Z,2.44
2023-01-15T08:33:48.877Z,2.22
2023-01-15T08:36:18.505Z,2.49
2023-01-15T08:38:50.522Z,2.38
2023-01-15T08:41:19.056Z,2.47
2023-01-15T08:43:49.844Z,2.56
2023-01-15T08:46:18.522Z,2.55
2023-01-15T08:48:47.281Z,2.62
2023-01-15T08:51:16.026Z,2.47
2023-01-15T08:53:45.046Z,2.70
2023-01-15T08:56:16.434Z,2.72
2023-01-15T08:58:45.756Z,2.67
2023-01-15T09:01:16.264Z,2.63
2023-01-15T09:03:45.184Z,2.88
2023-01-15T09:06:13.696Z,2.90
2023-01-15T09:08:42.323Z,2.95
2023-01-15T09:11:13.198Z,3.03
2023-01-15T09:13:44.484Z,2.84
2023-01-15T09:16:12.988Z,3.29
2023-01-15T09:18:41.560Z,3.19
2023-01-15T09:21:10.363Z,3.09
2023-01-15T09:23:38.755Z,3.11
2023-01-15T09:26:09.683Z,3.19
2023-01-15T09:28:38.140Z,3.06
2023-01-15T09:31:12.303Z,3.25
2023-01-15T09:33:42.385Z,3.46
2023-01-15T09:36:18.113Z,3.48
2023-01-15T09:38:46.946Z,3.35
2023-01-15T09:41:31.682Z,3.48
2023-01-15T09:44:19.842Z,3.50
2023-01-15T09:47:04.554Z,3.83
2023-01-15T09:50:06.119Z,3.90
2023-01-15T09:53:11.547Z,3.91
2023-01-15T09:55:48.118Z,3.86
2023-01-15T09:58:19.605Z,4.00
2023-01-15T10:00:52.559Z,4.16
2023-01-15T10:03:34.095Z,3.44
2023-01-15T10:06:14.996Z,4.18
2023-01-15T10:08:48.103Z,3.84
2023-01-15T10:11:54.311Z,4.02
2023-01-15T10:14:40.233Z,4.11
2023-01-15T10:17:29.362Z,3.86
2023-01-15T10:20:02.361Z,3.90
2023-01-15T10:22:46.009Z,4.22
2023-01-15T10:25:23.456Z,4.35
2023-01-15T10:27:53.588Z,4.47
2023-01-15T10:30:37.553Z,4.43
2023-01-15T10:33:28.599Z,4.81
2023-01-15T10:36:06.045Z,4.71
2023-01-15T10:38:42.148Z,4.57
2023-01-15T10:41:53.501Z,4.61
2023-01-15T10:44:32.147Z,4.81
2023-01-15T10:47:02.805Z,4.78
2023-01-15T10:49:33.026Z,4.91
2023-01-15T10:52:19.543Z,4.96
2023-01-15T10:54:53.495Z,4.89
2023-01-15T10:57:31.416Z,4.85
2023-01-15T11:00:05.608Z,4.79
2023-01-15T11:02:42.400Z,5.04
2023-01-15T11:05:16.166Z,4.82
2023-01-15T11:10:41.773Z,4.84
2023-01-15T11:13:40.958Z,4.90
2023-01-15T11:16:36.315Z,5.21
2023-01-15T11:19:24.041Z,5.17
2023-01-15T11:21:58.289Z,5.11
2023-01-15T11:24:28.045Z,5.02
2023-01-15T11:26:58.003Z,4.91
2023-01-15T11:29:33.871Z,4.62
2023-01-15T11:32:04.530Z,4.58
2023-01-15T11:34:36.848Z,4.37
2023-01-15T11:37:08.211Z,4.62
2023-01-15T11:39:38.036Z,4.62
2023-01-15T11:42:34.139Z,4.56
2023-01-15T11:45:20.222Z,4.82
2023-01-15T11:48:16.697Z,4.90
2023-01-15T11:50:56.222Z,4.68
2023-01-15T11:53:30.242Z,4.59
2023-01-15T11:56:06.074Z,4.61
2023-01-15T11:58:42.741Z,4.42
2023-01-15T12:01:15.761Z,4.65
2023-01-15T12:03:46.074Z,4.39
2023-01-15T12:06:17.534Z,4.69
2023-01-15T12:08:51.819Z,4.41
2023-01-15T12:11:44.396Z,4.26
2023-01-15T12:14:53.009Z,4.00
2023-01-15T12:17:41.627Z,4.17
2023-01-15T12:20:24.104Z,3.96
2023-01-15T12:23:28.735Z,3.96
2023-01-15T12:26:08.768Z,3.99
2023-01-15T12:28:46.766Z,4.30
2023-01-15T12:31:22.674Z,4.35
2023-01-15T12:33:57.127Z,4.26
2023-01-15T12:36:34.109Z,4.47
2023-01-15T12:39:09.208Z,4.62
2023-01-15T12:42:07.577Z,4.51
2023-01-15T12:45:04.004Z,4.45
2023-01-15T12:47:44.018Z,4.65
2023-01-15T12:50:36.527Z,4.46
2023-01-15T12:53:18.752Z,4.77
2023-01-15T12:55:57.373Z,4.65
2023-01-15T12:58:43.318Z,4.49
2023-01-15T13:01:20.540Z,4.31
2023-01-15T13:04:14.104Z,4.48
2023-01-15T13:06:50.211Z,4.08
2023-01-15T13:09:38.328Z,4.44
2023-01-15T13:12:14.515Z,4.22
2023-01-15T13:14:46.324Z,4.41
2023-01-15T13:17:32.187Z,4.37
2023-01-15T13:20:26.689Z,4.09
2023-01-15T13:23:08.936Z,4.29
2023-01-15T13:26:04.664Z,4.14
2023-01-15T13:28:59.781Z,4.41
2023-01-15T13:31:56.357Z,4.66
2023-01-15T13:34:37.872Z,4.62
2023-01-15T13:37:18.159Z,4.47
2023-01-15T13:39:50.662Z,4.29
2023-01-15T13:42:45.291Z,4.19
2023-01-15T13:45:41.629Z,3.96
2023-01-15T13:48:17.146Z,4.01
2023-01-15T13:51:27.324Z,4.17
2023-01-15T13:54:01.274Z,4.05
2023-01-15T13:56:32.517Z,4.02
2023-01-15T13:59:05.495Z,4.03
2023-01-15T14:01:37.317Z,4.19
2023-01-15T14:04:16.775Z,4.25
2023-01-15T14:06:51.853Z,3.46
2023-01-15T14:09:32.115Z,3.53
2023-01-15T14:12:18.759Z,3.80
2023-01-15T14:15:27.020Z,3.90
2023-01-15T14:18:48.226Z,3.96
2023-01-15T14:21:28.843Z,3.97
2023-01-15T14:24:33.874Z,4.39
2023-01-15T14:27:09.974Z,4.10
2023-01-15T14:30:14.689Z,3.96
2023-01-15T14:32:59.317Z,4.02
2023-01-15T14:35:29.193Z,3.77
2023-01-15T14:38:01.968Z,4.05
2023-01-15T14:40:34.445Z,4.13
2023-01-15T14:43:10.529Z,4.38
2023-01-15T14:45:42.574Z,4.54
2023-01-15T14:48:22.428Z,4.54
2023-01-15T14:50:54.318Z,4.50
2023-01-15T14:53:33.256Z,4.13
2023-01-15T14:56:16.726Z,4.20
2023-01-15T14:58:57.361Z,4.04
2023-01-15T15:01:51.556Z,4.39
2023-01-15T15:04:34.367Z,4.33
2023-01-15T15:07:15.028Z,4.36
2023-01-15T15:09:48.763Z,4.36
2023-01-15T15:12:37.058Z,4.34
2023-01-15T15:15:14.006Z,4.32
2023-01-15T15:17:57.236Z,4.28
2023-01-15T15:20:38.414Z,4.34
2023-01-15T15:23:16.796Z,4.28
2023-01-15T15:25:56.745Z,3.83
2023-01-15T15:28:27.603Z,3.91
2023-01-15T15:31:01.565Z,4.02
2023-01-15T15:33:41.278Z,4.12
2023-01-15T15:36:11.399Z,4.16
2023-01-15T15:38:45.715Z,4.17
2023-01-15T15:41:15.909Z,4.06
2023-01-15T15:44:08.561Z,3.43
2023-01-15T15:46:55.933Z,3.58
2023-01-15T15:49:24.817Z,3.32
2023-01-15T15:51:55.115Z,3.41
2023-01-15T15:54:28.475Z,3.39
2023-01-15T15:57:03.711Z,3.43
2023-01-15T15:59:36.833Z,3.52
2023-01-15T16:02:19.699Z,3.22
2023-01-15T16:04:52.225Z,2.69
2023-01-15T16:07:27.334Z,3.28
2023-01-15T16:10:00.481Z,2.43
2023-01-15T16:12:34.859Z,3.12
2023-01-15T16:15:08.950Z,3.04
2023-01-15T16:17:44.940Z,3.05
2023-01-15T16:20:17.593Z,3.20
2023-01-15T16:22:57.501Z,2.78
2023-01-15T16:25:32.131Z,3.15
2023-01-15T16:28:03.560Z,3.17
2023-01-15T16:30:35.603Z,3.07
2023-01-15T16:33:11.049Z,3.03
2023-01-15T16:35:42.249Z,2.87
2023-01-15T16:38:21.541Z,2.98
2023-01-15T16:40:53.559Z,2.78
2023-01-15T16:43:26.527Z,3.05
2023-01-15T16:46:19.402Z,2.84
2023-01-15T16:48:49.350Z,2.59
2023-01-15T16:51:35.348Z,2.43
2023-01-15T16:54:14.777Z,2.96
2023-01-15T16:56:55.900Z,3.03
2023-01-15T17:00:02.519Z,3.01
2023-01-15T17:02:49.976Z,2.28
2023-01-15T17:05:27.187Z,2.76
2023-01-15T17:07:57.930Z,2.55
2023-01-15T17:10:31.962Z,2.86
2023-01-15T17:13:00.845Z,2.36
2023-01-15T17:15:53.271Z,2.65
2023-01-15T17:18:37.396Z,2.47
2023-01-15T17:21:07.583Z,2.05
2023-01-15T17:23:43.107Z,2.66
2023-01-15T17:26:19.000Z,2.43
2023-01-15T17:28:48.697Z,1.89
2023-01-15T17:31:30.244Z,2.75
2023-01-15T17:34:10.047Z,2.53
2023-01-15T17:36:44.572Z,2.67
2023-01-15T17:39:14.392Z,2.59
2023-01-15T17:41:46.333Z,2.30
2023-01-15T17:44:16.636Z,2.23
2023-01-15T17:46:45.340Z,2.06
2023-01-15T17:49:17.306Z,2.21
2023-01-15T17:51:46.867Z,1.82
2023-01-15T17:54:36.791Z,1.55
2023-01-15T17:57:26.148Z,1.68
2023-01-15T18:00:14.266Z,2.20
2023-01-15T18:03:01.842Z,1.64
2023-01-15T18:05:36.559Z,1.68
2023-01-15T18:08:11.354Z,1.85
2023-01-15T18:10:43.459Z,1.59
2023-01-15T18:13:12.763Z,2.13
2023-01-15T18:15:41.833Z,1.99
2023-01-15T18:18:25.341Z,2.10
2023-01-15T18:20:56.829Z,2.18
2023-01-15T18:23:26.647Z,2.17
2023-01-15T18:25:55.699Z,1.61
2023-01-15T18:28:26.967Z,2.22
2023-01-15T18:30:55.851Z,2.11
2023-01-15T18:33:24.848Z,2.06
2023-01-15T18:36:05.981Z,1.79
2023-01-15T18:38:36.760Z,1.37
2023-01-15T18:41:38.103Z,2.12
2023-01-15T18:44:35.885Z,2.10
2023-01-15T18:47:10.011Z,1.91
2023-01-15T18:49:42.086Z,2.00
2023-01-15T18:52:32.823Z,1.73
2023-01-15T18:55:08.960Z,1.64
2023-01-15T18:57:37.979Z,1.74
2023-01-15T19:00:09.255Z,1.91
2023-01-15T19:02:38.471Z,1.34
2023-01-15T19:05:32.253Z,1.65
2023-01-15T19:08:02.338Z,1.87
2023-01-15T19:10:31.267Z,1.88
2023-01-15T19:13:06.222Z,1.59
2023-01-15T19:15:54.875Z,2.00
2023-01-15T19:18:45.517Z,1.90
2023-01-15T19:21:20.205Z,1.44
2023-01-15T19:23:52.328Z,1.87
2023-01-15T19:26:21.375Z,1.13
2023-01-15T19:28:53.031Z,0.98
2023-01-15T19:31:40.325Z,1.50
2023-01-15T19:34:33.265Z,1.40
2023-01-15T19:37:04.015Z,1.89
2023-01-15T19:39:36.023Z,1.86
2023-01-15T19:42:23.647Z,1.72
2023-01-15T19:45:09.659Z,2.07
2023-01-15T19:48:01.665Z,1.98
2023-01-15T19:50:37.454Z,1.43
2023-01-15T19:53:07.920Z,1.45
2023-01-15T19:55:44.568Z,1.70
2023-01-15T19:58:15.861Z,1.32
2023-01-15T20:00:49.240Z,1.97
2023-01-15T20:03:18.799Z,2.65
2023-01-15T20:05:48.148Z,2.68
2023-01-15T20:08:18.272Z,2.13
2023-01-15T20:10:53.806Z,2.05
2023-01-15T20:13:42.646Z,2.05
2023-01-15T20:16:14.267Z,2.60
2023-01-15T20:18:42.826Z,2.43
2023-01-15T20:21:14.606Z,2.48
2023-01-15T20:23:43.475Z,2.78
2023-01-15T20:26:17.347Z,2.28
2023-01-15T20:28:47.663Z,3.30
2023-01-15T20:31:18.660Z,2.78
2023-01-15T20:33:47.960Z,2.72
2023-01-15T20:36:19.758Z,2.73
2023-01-15T20:38:48.103Z,3.22
2023-01-15T20:41:36.111Z,3.07
2023-01-15T20:44:23.435Z,2.45
2023-01-15T20:46:51.903Z,2.85
2023-01-15T20:49:28.183Z,3.17
2023-01-15T20:51:58.853Z,3.18
2023-01-15T20:54:27.791Z,2.52
2023-01-15T20:56:57.585Z,2.38
2023-01-15T20:59:25.996Z,2.60
2023-01-15T21:01:55.686Z,3.23
2023-01-15T21:04:24.556Z,2.99
2023-01-15T21:06:53.141Z,2.58
2023-01-15T21:09:22.808Z,3.19
2023-01-15T21:11:52.305Z,1.95
2023-01-15T21:14:27.247Z,2.28
2023-01-15T21:16:56.198Z,2.92
2023-01-15T21:19:26.723Z,2.18
2023-01-15T21:21:56.506Z,2.49
2023-01-15T21:24:25.220Z,2.96
2023-01-15T21:26:53.973Z,2.66
2023-01-15T21:29:24.288Z,2.31
2023-01-15T21:31:54.968Z,2.49
2023-01-15T21:34:24.030Z,3.19
2023-01-15T21:36:53.519Z,2.43
2023-01-15T21:39:24.813Z,2.75
2023-01-15T21:42:13.020Z,2.56
2023-01-15T21:44:44.444Z,2.23
2023-01-15T21:47:19.141Z,2.32
2023-01-15T21:49:48.297Z,2.72
2023-01-15T21:52:20.287Z,2.70
2023-01-15T21:54:50.164Z,2.98
2023-01-15T21:57:21.559Z,3.12
2023-01-15T21:59:51.659Z,2.68
2023-01-15T22:02:23.920Z,3.18
2023-01-15T22:04:52.749Z,3.31
2023-01-15T22:07:21.521Z,2.90
2023-01-15T22:09:50.278Z,3.32
2023-01-15T22:12:20.552Z,2.65
2023-01-15T22:14:53.709Z,3.06
2023-01-15T22:17:26.851Z,2.57
2023-01-15T22:19:57.006Z,2.73
2023-01-15T22:22:30.689Z,2.88
2023-01-15T22:24:59.937Z,2.70
2023-01-15T22:27:29.901Z,3.01
2023-01-15T22:30:00.627Z,3.24
2023-01-15T22:32:31.843Z,2.99
2023-01-15T22:35:00.672Z,2.55
2023-01-15T22:37:31.871Z,3.25
2023-01-15T22:40:00.377Z,2.95
2023-01-15T22:42:32.819Z,2.79
2023-01-15T22:45:04.160Z,3.00
2023-01-15T22:47:35.546Z,3.01
2023-01-15T22:50:05.861Z,2.57
2023-01-15T22:52:35.608Z,2.92
2023-01-15T22:55:04.519Z,3.53
2023-01-15T22:57:33.159Z,3.33
2023-01-15T23:00:03.335Z,3.03
2023-01-15T23:02:49.889Z,3.31
2023-01-15T23:05:19.787Z,3.16
2023-01-15T23:07:48.945Z,3.15
2023-01-15T23:10:20.265Z,2.65
2023-01-15T23:12:48.981Z,3.03
2023-01-15T23:15:17.830Z,3.25
2023-01-15T23:17:47.109Z,2.49
2023-01-15T23:20:15.702Z,3.02
2023-01-15T23:22:47.608Z,2.28
2023-01-15T23:25:16.127Z,2.87
2023-01-15T23:27:46.809Z,2.95
2023-01-15T23:30:16.236Z,3.01
2023-01-15T23:32:44.628Z,2.87
2023-01-15T23:35:13.406Z,2.60
2023-01-15T23:37:41.740Z,2.69
2023-01-15T23:40:20.931Z,2.62
2023-01-15T23:43:07.529Z,2.63
2023-01-15T23:46:03.527Z,2.70
2023-01-15T23:48:32.080Z,1.91
2023-01-15T23:51:01.025Z,2.80
2023-01-15T23:53:29.569Z,2.76
2023-01-15T23:56:00.661Z,2.26
2023-01-15T23:58:30.797Z,1.99
